Time;durP1;ratioP1;P1;durP2;ratioP2;P2;SDS_P1;SDS_P2;PMS_P1;PMS_P2;Temp;Humidity;BMP_temperature;BMP_pressure;BME280_temperature;BME280_humidity;BME280_pressure;Samples;Min_cycle;Max_cycle;Signal;HPM_P1;HPM_P2
2021/08/05 00:02:44;;;;;;;8.18;4.53;;;;;;;13.27;77.50;99799.11;1983610;87;21127;-81
2021/08/05 00:05:45;;;;;;;10.08;5.17;;;;;;;13.28;77.45;99791.42;2015696;86;21093;-77
2021/08/05 00:08:47;;;;;;;5.95;4.58;;;;;;;13.32;77.66;99791.86;1990577;87;21117;-77
2021/08/05 00:11:48;;;;;;;7.30;4.75;;;;;;;13.37;77.63;99795.59;2004828;86;21723;-79
2021/08/05 00:14:50;;;;;;;10.40;4.12;;;;;;;13.42;77.78;99791.84;2001048;85;21074;-84
2021/08/05 00:17:51;;;;;;;12.73;4.72;;;;;;;13.41;77.44;99799.53;2005779;86;22241;-80
2021/08/05 00:20:53;;;;;;;6.22;4.08;;;;;;;13.42;77.37;99797.69;2014835;86;21135;-76
2021/08/05 00:23:54;;;;;;;6.62;3.85;;;;;;;13.40;77.46;99793.90;2003266;86;21646;-77
2021/08/05 00:26:56;;;;;;;7.35;5.15;;;;;;;13.39;77.65;99787.41;1999729;86;21128;-77
2021/08/05 00:29:58;;;;;;;6.55;4.30;;;;;;;13.43;77.88;99784.19;2006576;86;21110;-79
2021/08/05 00:32:59;;;;;;;7.50;4.97;;;;;;;13.47;77.81;99787.79;2006939;86;21184;-77
2021/08/05 00:36:01;;;;;;;5.20;4.20;;;;;;;13.49;77.82;99791.06;2000039;86;21113;-80
2021/08/05 00:39:03;;;;;;;12.07;5.30;;;;;;;13.47;77.67;99782.46;1974706;87;21136;-78
2021/08/05 00:42:05;;;;;;;9.88;5.17;;;;;;;13.47;77.74;99785.13;1974724;86;21110;-78
2021/08/05 00:45:08;;;;;;;10.58;4.58;;;;;;;13.48;77.83;99788.91;1964301;88;22370;-77
2021/08/05 00:48:09;;;;;;;7.62;5.28;;;;;;;13.51;77.88;99790.38;1972504;87;21107;-76
2021/08/05 00:51:11;;;;;;;9.00;5.03;;;;;;;13.48;77.91;99780.92;1974262;88;21093;-79
2021/08/05 00:54:12;;;;;;;11.85;4.62;;;;;;;13.50;77.97;99780.73;1969569;88;21144;-77
2021/08/05 00:57:14;;;;;;;5.33;4.80;;;;;;;13.48;77.95;99770.77;1935838;88;21690;-79
2021/08/05 01:00:16;;;;;;;9.35;5.20;;;;;;;13.50;78.04;99770.08;1984304;88;21008;-78
2021/08/05 01:03:31;;;;;;;7.80;4.75;;;;;;;13.50;78.00;99767.41;1968699;88;21109;-76
2021/08/05 01:07:01;;;;;;;9.30;6.35;;;;;;;13.46;78.14;99768.31;1962992;88;21153;-79
2021/08/05 01:10:13;;;;;;;9.05;5.37;;;;;;;13.41;78.22;99761.41;1968288;88;21163;-76
2021/08/05 01:13:34;;;;;;;7.95;5.62;;;;;;;13.41;78.26;99762.73;1979369;87;22444;-82
2021/08/05 01:16:38;;;;;;;8.03;5.60;;;;;;;13.39;78.26;99764.77;1958490;88;21132;-79
2021/08/05 01:19:49;;;;;;;9.13;5.20;;;;;;;13.37;78.44;99756.95;1941563;89;21208;-76
2021/08/05 01:23:29;;;;;;;7.53;5.00;;;;;;;13.36;78.47;99756.64;1971792;88;21091;-83
2021/08/05 01:26:51;;;;;;;7.55;5.75;;;;;;;13.35;78.45;99745.69;1992173;85;21230;-82
2021/08/05 01:29:54;;;;;;;8.70;5.60;;;;;;;13.39;78.50;99756.25;2006403;85;21129;-77
2021/08/05 01:32:57;;;;;;;8.38;5.35;;;;;;;13.40;78.49;99748.59;2001794;87;21072;-74
2021/08/05 01:36:00;;;;;;;9.30;6.08;;;;;;;13.38;78.37;99754.62;1984109;87;22302;-74
2021/08/05 01:39:02;;;;;;;9.93;5.67;;;;;;;13.35;78.46;99744.35;1975020;88;21183;-74
2021/08/05 01:42:06;;;;;;;7.97;4.92;;;;;;;13.36;78.65;99741.98;1973068;88;21111;-78
2021/08/05 01:45:09;;;;;;;9.08;5.60;;;;;;;13.36;78.56;99741.98;1970816;87;21132;-76
2021/08/05 01:48:15;;;;;;;7.80;6.00;;;;;;;13.34;78.58;99736.02;1977243;88;21164;-74
2021/08/05 01:51:23;;;;;;;9.90;6.17;;;;;;;13.30;78.69;99731.30;1980479;88;21100;-78
2021/08/05 01:54:25;;;;;;;7.90;5.28;;;;;;;13.32;78.93;99734.56;1975902;88;21750;-74
2021/08/05 01:57:26;;;;;;;9.30;5.42;;;;;;;13.29;78.94;99726.48;1976333;88;21629;-75
2021/08/05 02:00:28;;;;;;;8.63;4.67;;;;;;;13.31;78.89;99730.27;1986047;88;21100;-74
2021/08/05 02:03:29;;;;;;;8.13;5.30;;;;;;;13.33;78.87;99730.91;1961449;88;21604;-75
2021/08/05 02:06:36;;;;;;;6.58;5.17;;;;;;;13.35;78.94;99734.20;1955734;87;21122;-75
2021/08/05 02:09:49;;;;;;;11.25;5.25;;;;;;;13.36;78.79;99731.33;1947210;88;21692;-75
2021/08/05 02:13:04;;;;;;;9.43;6.12;;;;;;;13.38;78.91;99737.81;1946362;88;21094;-74
2021/08/05 02:16:13;;;;;;;9.25;5.65;;;;;;;13.36;78.99;99734.00;1985376;87;21192;-74
2021/08/05 02:19:15;;;;;;;7.35;5.62;;;;;;;13.37;79.01;99735.63;1961401;87;21117;-77
2021/08/05 02:22:20;;;;;;;6.05;5.12;;;;;;;13.38;79.10;99732.48;1960535;88;21614;-74
2021/08/05 02:25:23;;;;;;;11.48;5.17;;;;;;;13.39;79.14;99730.94;1926106;89;21133;-76
2021/08/05 02:28:26;;;;;;;7.55;4.25;;;;;;;13.38;79.01;99725.82;1955482;88;22376;-80
2021/08/05 02:31:28;;;;;;;8.43;4.05;;;;;;;13.38;78.98;99719.98;1929343;89;21488;-74
2021/08/05 02:34:32;;;;;;;5.92;4.90;;;;;;;13.40;79.06;99722.43;1976384;86;22228;-76
2021/08/05 02:37:33;;;;;;;7.45;5.17;;;;;;;13.40;79.06;99719.28;1984352;86;21115;-77
2021/08/05 02:40:36;;;;;;;10.43;4.95;;;;;;;13.42;79.21;99719.89;1984948;86;21115;-77
2021/08/05 02:43:39;;;;;;;8.75;4.80;;;;;;;13.45;79.17;99715.50;1959509;87;21104;-77
2021/08/05 02:46:41;;;;;;;6.83;5.25;;;;;;;13.46;79.16;99709.69;1987387;87;22262;-77
2021/08/05 02:49:42;;;;;;;6.53;5.20;;;;;;;13.44;79.11;99704.53;1981524;87;21085;-78
2021/08/05 02:52:44;;;;;;;5.62;4.55;;;;;;;13.45;79.29;99706.69;1986218;86;21818;-77
2021/08/05 02:55:46;;;;;;;9.40;5.17;;;;;;;13.45;79.33;99715.50;1984201;87;21124;-77
2021/08/05 02:58:47;;;;;;;7.33;5.03;;;;;;;13.45;79.25;99705.35;1984903;86;21192;-77
2021/08/05 03:01:49;;;;;;;6.67;5.35;;;;;;;13.44;79.38;99704.53;1978221;86;21119;-82
2021/08/05 03:04:50;;;;;;;7.30;5.08;;;;;;;13.44;79.45;99695.20;2004729;86;21085;-76
2021/08/05 03:07:52;;;;;;;11.05;5.28;;;;;;;13.49;79.42;99698.63;2000658;86;21117;-78
2021/08/05 03:10:53;;;;;;;6.28;5.30;;;;;;;13.48;79.32;99700.96;2011863;86;21621;-82
2021/08/05 03:13:55;;;;;;;9.48;5.28;;;;;;;13.49;79.36;99697.30;2008984;86;21035;-76
2021/08/05 03:16:57;;;;;;;11.55;5.15;;;;;;;13.52;79.36;99697.42;1959046;88;21651;-77
2021/08/05 03:19:58;;;;;;;10.18;5.17;;;;;;;13.52;79.33;99692.91;2007152;86;21077;-78
2021/08/05 03:23:00;;;;;;;9.98;6.05;;;;;;;13.53;79.32;99696.39;2016283;85;21169;-76
2021/08/05 03:26:01;;;;;;;7.12;5.83;;;;;;;13.54;79.47;99698.02;1989764;86;21113;-79
2021/08/05 03:29:03;;;;;;;7.90;5.97;;;;;;;13.54;79.63;99695.36;2011366;86;21647;-77
2021/08/05 03:32:05;;;;;;;6.87;5.95;;;;;;;13.51;79.62;99690.42;2019498;84;21086;-83
2021/08/05 03:35:08;;;;;;;8.70;6.25;;;;;;;13.51;79.85;99691.75;2007616;85;21101;-77
2021/08/05 03:38:09;;;;;;;8.45;6.30;;;;;;;13.54;79.97;99693.51;2018157;85;21132;-79
2021/08/05 03:41:11;;;;;;;8.25;6.72;;;;;;;13.55;80.01;99686.36;2024783;85;21844;-77
2021/08/05 03:44:12;;;;;;;10.30;6.85;;;;;;;13.62;80.04;99695.20;2006597;85;21101;-76
2021/08/05 03:47:14;;;;;;;8.10;6.60;;;;;;;13.66;80.10;99691.14;1999720;86;21085;-81
2021/08/05 03:50:15;;;;;;;9.28;7.12;;;;;;;13.67;80.04;99694.92;2008066;86;21093;-77
2021/08/05 03:53:17;;;;;;;9.43;6.97;;;;;;;13.61;80.13;99696.23;2014887;85;21073;-78
2021/08/05 03:56:18;;;;;;;8.50;6.58;;;;;;;13.59;80.27;99687.59;2009295;86;21695;-76
2021/08/05 03:59:19;;;;;;;9.58;7.83;;;;;;;13.56;80.41;99688.81;2006769;85;21438;-79
2021/08/05 04:02:21;;;;;;;9.63;7.17;;;;;;;13.55;80.52;99688.52;1983478;87;21250;-76
2021/08/05 04:05:23;;;;;;;8.68;7.78;;;;;;;13.55;80.68;99690.36;1984179;86;22322;-75
2021/08/05 04:08:25;;;;;;;12.20;7.83;;;;;;;13.54;80.79;99687.36;1967735;88;21089;-79
2021/08/05 04:11:26;;;;;;;13.38;8.20;;;;;;;13.51;80.95;99681.91;1983344;87;21161;-77
2021/08/05 04:14:27;;;;;;;11.60;7.78;;;;;;;13.48;81.12;99680.16;1986028;87;21074;-77
2021/08/05 04:17:29;;;;;;;13.83;7.85;;;;;;;13.48;81.18;99676.16;1961879;88;21159;-78
2021/08/05 04:20:30;;;;;;;11.90;7.90;;;;;;;13.51;81.31;99673.09;1967911;88;21065;-78
2021/08/05 04:23:32;;;;;;;9.80;8.73;;;;;;;13.53;81.39;99671.88;1960816;88;21091;-78
2021/08/05 04:26:33;;;;;;;9.88;8.28;;;;;;;13.57;81.47;99673.16;1966030;88;21723;-79
2021/08/05 04:29:35;;;;;;;11.85;8.53;;;;;;;13.61;81.60;99666.91;1965746;88;22027;-77
2021/08/05 04:32:37;;;;;;;10.40;8.13;;;;;;;13.61;81.69;99658.40;2007416;86;21148;-78
2021/08/05 04:35:39;;;;;;;14.05;8.95;;;;;;;13.67;81.81;99660.78;2006721;86;21034;-77
2021/08/05 04:38:40;;;;;;;14.23;9.63;;;;;;;13.72;81.90;99662.34;1999933;86;21707;-76
2021/08/05 04:41:42;;;;;;;14.78;9.05;;;;;;;13.76;81.97;99660.92;2005984;86;21123;-77
2021/08/05 04:44:43;;;;;;;11.40;8.50;;;;;;;13.83;82.00;99657.78;2003874;86;22129;-77
2021/08/05 04:48:01;;;;;;;10.32;9.23;;;;;;;13.90;82.06;99650.61;1990932;87;21157;-79
2021/08/05 04:51:02;;;;;;;10.68;8.45;;;;;;;13.99;82.12;99657.11;1980116;86;21669;-80
2021/08/05 04:54:03;;;;;;;11.20;9.78;;;;;;;14.06;82.25;99648.63;1988253;86;21197;-79
2021/08/05 04:57:05;;;;;;;14.10;10.25;;;;;;;14.15;82.27;99651.42;1979662;87;21072;-76
2021/08/05 05:00:08;;;;;;;15.20;9.28;;;;;;;14.24;82.33;99648.87;1996056;87;21716;-78
2021/08/05 05:03:11;;;;;;;13.03;10.85;;;;;;;14.31;82.36;99651.05;1979332;86;21104;-77
2021/08/05 05:06:13;;;;;;;16.82;11.15;;;;;;;14.38;82.31;99656.39;1982802;86;21115;-78
2021/08/05 05:09:14;;;;;;;13.05;10.65;;;;;;;14.43;82.31;99650.45;1984202;86;21113;-77
2021/08/05 05:12:15;;;;;;;14.90;11.15;;;;;;;14.49;82.25;99656.31;1996023;86;21703;-77
2021/08/05 05:15:19;;;;;;;12.47;10.35;;;;;;;14.57;82.23;99645.47;2002905;87;21108;-79
2021/08/05 05:18:24;;;;;;;15.32;10.38;;;;;;;14.64;82.15;99644.98;1978268;85;21589;-79
2021/08/05 05:21:25;;;;;;;13.03;10.50;;;;;;;14.73;82.31;99649.08;1972467;87;21117;-77
2021/08/05 05:24:26;;;;;;;12.93;10.95;;;;;;;14.82;82.26;99644.88;1982582;87;21152;-77
2021/08/05 05:27:27;;;;;;;15.00;9.43;;;;;;;14.91;82.28;99647.63;1987977;85;22303;-81
2021/08/05 05:30:29;;;;;;;13.60;9.73;;;;;;;14.94;82.04;99646.70;1983674;86;21114;-77
2021/08/05 05:33:31;;;;;;;13.10;10.72;;;;;;;14.97;82.09;99636.94;1981617;86;21228;-77
2021/08/05 05:36:32;;;;;;;13.38;10.80;;;;;;;15.00;82.01;99635.18;1955875;88;21707;-78
2021/08/05 05:39:33;;;;;;;15.08;10.85;;;;;;;15.07;82.09;99647.73;1960878;88;21431;-77
2021/08/05 05:42:34;;;;;;;13.53;11.05;;;;;;;15.13;82.13;99645.56;2017933;85;21686;-80
2021/08/05 05:45:36;;;;;;;13.88;12.15;;;;;;;15.18;82.10;99643.09;2014109;85;21078;-78
2021/08/05 05:48:38;;;;;;;14.78;11.85;;;;;;;15.21;82.14;99644.83;2028380;85;22433;-79
2021/08/05 05:51:39;;;;;;;15.90;13.18;;;;;;;15.24;82.33;99635.58;2010834;86;21953;-78
2021/08/05 05:54:42;;;;;;;16.40;14.68;;;;;;;15.29;82.45;99638.45;2013142;85;21136;-77
2021/08/05 05:57:43;;;;;;;15.48;13.45;;;;;;;15.34;82.59;99639.14;2016150;85;21082;-77
2021/08/05 06:00:44;;;;;;;20.90;15.48;;;;;;;15.39;82.54;99638.00;2012199;84;21097;-77
2021/08/05 06:03:46;;;;;;;16.55;14.78;;;;;;;15.43;82.64;99635.23;2015481;86;21101;-82
2021/08/05 06:06:47;;;;;;;16.37;14.70;;;;;;;15.51;82.60;99630.96;1981627;85;21152;-77
2021/08/05 06:09:48;;;;;;;18.80;15.03;;;;;;;15.56;82.59;99631.67;2018240;85;21053;-78
2021/08/05 06:12:50;;;;;;;19.40;15.93;;;;;;;15.56;82.48;99628.48;1980036;87;21377;-77
2021/08/05 06:15:52;;;;;;;18.75;16.05;;;;;;;15.58;82.49;99627.77;2004686;86;21101;-75
2021/08/05 06:18:55;;;;;;;21.37;17.70;;;;;;;15.64;82.59;99638.13;1988619;86;21094;-81
2021/08/05 06:21:58;;;;;;;18.62;16.73;;;;;;;15.65;82.56;99628.58;2011591;86;21109;-78
2021/08/05 06:24:59;;;;;;;20.12;17.92;;;;;;;15.65;82.54;99627.23;1976440;86;21534;-83
2021/08/05 06:28:00;;;;;;;19.65;17.45;;;;;;;15.67;82.67;99619.80;2028927;85;21112;-82
2021/08/05 06:31:03;;;;;;;22.48;18.48;;;;;;;15.72;82.79;99622.41;2021942;86;21132;-77
2021/08/05 06:34:06;;;;;;;23.05;20.08;;;;;;;15.76;82.87;99620.94;2013900;85;21092;-76
2021/08/05 06:37:07;;;;;;;21.27;19.17;;;;;;;15.81;82.84;99623.80;2019405;85;21584;-78
2021/08/05 06:40:09;;;;;;;21.97;19.67;;;;;;;15.91;83.09;99622.31;2013828;85;21055;-78
2021/08/05 06:43:11;;;;;;;21.60;19.27;;;;;;;16.01;82.96;99619.16;1981285;87;21156;-80
2021/08/05 06:46:12;;;;;;;23.67;19.85;;;;;;;16.16;82.99;99618.05;1980622;86;21900;-74
2021/08/05 06:49:14;;;;;;;22.32;19.75;;;;;;;16.25;82.83;99618.11;1983163;87;21088;-72
2021/08/05 06:52:15;;;;;;;26.40;20.65;;;;;;;16.29;82.64;99615.30;1962670;87;21148;-74
2021/08/05 06:55:16;;;;;;;25.25;21.02;;;;;;;16.31;82.53;99618.06;1986357;87;21074;-77
2021/08/05 06:58:20;;;;;;;20.90;18.75;;;;;;;16.41;82.82;99616.23;1952524;86;21127;-77
2021/08/05 07:01:20;;;;;;;22.52;20.17;;;;;;;16.48;82.41;99617.02;1986842;87;21190;-75
2021/08/05 07:04:21;;;;;;;23.67;19.80;;;;;;;16.49;82.20;99618.64;1980367;86;21089;-74
2021/08/05 07:07:23;;;;;;;21.75;19.55;;;;;;;16.56;82.40;99615.41;1985943;86;21102;-75
2021/08/05 07:10:25;;;;;;;23.87;21.35;;;;;;;16.64;82.25;99616.16;1987361;87;21054;-72
2021/08/05 07:13:26;;;;;;;22.82;20.45;;;;;;;16.80;82.58;99614.31;1978676;86;21114;-74
2021/08/05 07:16:27;;;;;;;25.48;20.25;;;;;;;16.92;82.34;99614.41;1980049;87;21564;-74
2021/08/05 07:19:29;;;;;;;22.30;19.95;;;;;;;17.05;82.38;99617.49;2005991;86;21133;-83
2021/08/05 07:22:31;;;;;;;24.05;17.37;;;;;;;17.13;82.03;99609.98;1990371;86;21120;-74
2021/08/05 07:25:32;;;;;;;23.42;18.10;;;;;;;17.14;81.57;99610.27;1982524;86;21182;-72
2021/08/05 07:28:33;;;;;;;20.08;17.98;;;;;;;17.12;81.20;99606.17;1980034;86;21463;-72
2021/08/05 07:31:35;;;;;;;20.50;18.02;;;;;;;17.09;81.34;99606.62;1981412;86;21185;-79
2021/08/05 07:34:36;;;;;;;19.50;17.45;;;;;;;17.13;81.40;99607.83;1986944;87;21088;-72
2021/08/05 07:37:38;;;;;;;19.75;17.65;;;;;;;17.11;81.06;99607.22;1979602;88;21406;-77
2021/08/05 07:40:40;;;;;;;16.35;14.70;;;;;;;17.09;81.16;99605.28;1990972;87;21727;-84
2021/08/05 07:43:41;;;;;;;20.17;17.77;;;;;;;17.09;81.11;99603.94;1997289;87;21142;-78
2021/08/05 07:46:48;;;;;;;19.92;17.82;;;;;;;17.07;81.31;99608.72;1997382;86;21144;-72
2021/08/05 07:49:46;;;;;;;18.60;16.32;;;;;;;17.07;81.00;99604.17;1980941;86;21146;-74
2021/08/05 07:52:47;;;;;;;18.35;16.45;;;;;;;17.09;80.86;99600.77;1981738;87;21153;-77
2021/08/05 07:55:48;;;;;;;18.42;16.62;;;;;;;17.13;80.88;99599.78;1989531;86;21119;-76
2021/08/05 07:58:50;;;;;;;17.48;15.70;;;;;;;17.23;81.17;99598.73;1988091;87;21125;-75
2021/08/05 08:01:52;;;;;;;17.07;15.28;;;;;;;17.39;81.02;99603.51;1984184;86;21069;-73
2021/08/05 08:04:53;;;;;;;15.08;13.55;;;;;;;17.53;80.67;99600.68;1983471;87;21185;-72
2021/08/05 08:07:55;;;;;;;15.63;13.58;;;;;;;17.57;79.87;99596.49;1925064;89;21150;-72
2021/08/05 08:10:57;;;;;;;14.28;12.90;;;;;;;17.63;79.84;99591.59;2016400;85;21093;-73
2021/08/05 08:13:58;;;;;;;14.90;12.40;;;;;;;17.81;79.94;99588.08;2020924;85;21081;-74
2021/08/05 08:17:00;;;;;;;14.18;10.65;;;;;;;17.99;79.77;99585.37;2013697;86;21112;-74
2021/08/05 08:20:01;;;;;;;11.88;10.68;;;;;;;18.27;79.55;99586.09;2035172;85;21042;-82
2021/08/05 08:23:03;;;;;;;11.95;10.75;;;;;;;18.40;78.52;99576.18;2010797;85;21065;-85
2021/08/05 08:26:04;;;;;;;12.30;10.98;;;;;;;18.52;78.26;99574.32;2016486;85;21139;-79
2021/08/05 08:29:06;;;;;;;12.15;10.85;;;;;;;18.67;77.02;99575.20;2017599;84;21073;-76
2021/08/05 08:32:07;;;;;;;11.35;10.25;;;;;;;18.73;77.58;99576.98;2007676;86;21078;-82
2021/08/05 08:35:10;;;;;;;12.78;9.23;;;;;;;18.68;76.73;99587.08;2014540;86;21595;-76
2021/08/05 08:38:13;;;;;;;9.05;8.13;;;;;;;18.70;76.79;99585.52;2013665;84;21088;-76
2021/08/05 08:41:14;;;;;;;9.10;7.80;;;;;;;18.63;76.32;99590.98;2022541;85;21591;-74
2021/08/05 08:44:16;;;;;;;10.93;9.83;;;;;;;18.50;75.06;99593.88;2008287;85;21061;-77
2021/08/05 08:47:22;;;;;;;12.13;10.00;;;;;;;18.29;75.24;99597.40;2003242;85;21644;-75
2021/08/05 08:50:26;;;;;;;12.35;9.05;;;;;;;18.15;75.61;99590.59;2016270;85;21599;-76
2021/08/05 08:53:33;;;;;;;11.30;8.73;;;;;;;18.00;75.40;99591.55;2012753;86;21101;-76
2021/08/05 08:56:39;;;;;;;9.95;9.05;;;;;;;17.88;75.47;99584.27;2016868;84;21145;-76
2021/08/05 08:59:41;;;;;;;10.85;9.63;;;;;;;17.86;75.22;99589.04;2011932;85;21077;-74
2021/08/05 09:02:46;;;;;;;15.20;10.20;;;;;;;17.81;75.65;99590.23;2016467;85;21089;-75
2021/08/05 09:05:47;;;;;;;11.60;10.40;;;;;;;17.82;75.83;99587.02;2018976;86;21241;-80
2021/08/05 09:08:49;;;;;;;11.55;10.13;;;;;;;17.86;76.23;99589.04;2007596;86;21611;-82
2021/08/05 09:11:51;;;;;;;10.88;9.78;;;;;;;17.96;76.03;99587.66;2010805;85;21093;-77
2021/08/05 09:14:53;;;;;;;10.72;9.63;;;;;;;18.03;76.17;99582.51;2002768;86;21069;-74
2021/08/05 09:17:55;;;;;;;12.18;9.63;;;;;;;18.06;75.94;99578.55;2018367;86;21089;-74
2021/08/05 09:21:14;;;;;;;12.68;10.72;;;;;;;18.03;76.18;99576.33;2006661;85;21096;-76
2021/08/05 09:24:17;;;;;;;12.10;10.63;;;;;;;18.02;75.98;99578.70;2004330;86;21148;-78
2021/08/05 09:27:33;;;;;;;11.60;10.40;;;;;;;18.03;76.46;99575.80;2013787;86;21088;-78
2021/08/05 09:30:39;;;;;;;12.98;10.65;;;;;;;18.10;76.17;99575.69;2019404;86;21093;-76
2021/08/05 09:33:41;;;;;;;13.72;11.63;;;;;;;18.13;75.87;99566.67;2015284;85;21492;-73
2021/08/05 09:36:45;;;;;;;12.85;11.12;;;;;;;18.17;76.02;99560.84;2016965;84;21096;-75
2021/08/05 09:39:46;;;;;;;13.60;10.00;;;;;;;18.26;75.81;99562.14;2008641;85;21093;-77
2021/08/05 09:42:56;;;;;;;11.35;10.23;;;;;;;18.34;76.05;99556.44;2020071;85;21062;-73
2021/08/05 09:45:58;;;;;;;11.67;10.03;;;;;;;18.38;75.69;99554.38;1974833;87;21137;-75
2021/08/05 09:49:00;;;;;;;10.45;9.43;;;;;;;18.34;75.46;99549.20;1961700;87;21137;-75
2021/08/05 09:52:05;;;;;;;10.65;8.65;;;;;;;18.31;75.79;99544.29;1961294;88;21642;-74
2021/08/05 09:55:10;;;;;;;11.10;9.90;;;;;;;18.34;75.44;99542.48;1964945;88;21128;-74
2021/08/05 09:58:11;;;;;;;9.50;8.50;;;;;;;18.35;75.13;99542.76;1947803;88;22677;-75
2021/08/05 10:01:13;;;;;;;8.10;7.40;;;;;;;18.33;75.08;99534.67;1959967;88;21611;-73
2021/08/05 10:04:24;;;;;;;9.88;8.98;;;;;;;18.31;75.04;99537.58;1970644;88;21697;-76
2021/08/05 10:07:28;;;;;;;10.45;9.43;;;;;;;18.28;75.17;99531.86;1970694;88;21646;-75
2021/08/05 10:10:52;;;;;;;15.32;10.05;;;;;;;18.21;75.26;99534.63;1932581;88;21630;-74
2021/08/05 10:13:53;;;;;;;12.25;10.32;;;;;;;18.04;75.22;99538.50;1950922;86;21642;-74
2021/08/05 10:16:55;;;;;;;11.68;10.58;;;;;;;17.86;75.46;99532.68;1971773;88;21665;-74
2021/08/05 10:19:58;;;;;;;11.68;10.58;;;;;;;17.71;75.83;99532.27;1973680;88;21673;-75
2021/08/05 10:22:59;;;;;;;9.35;8.53;;;;;;;17.55;76.17;99527.52;1976480;87;21153;-78
2021/08/05 10:26:05;;;;;;;13.10;11.75;;;;;;;17.45;76.60;99538.24;1980966;88;21179;-78
2021/08/05 10:29:06;;;;;;;12.58;11.28;;;;;;;17.21;77.40;99541.86;1985861;87;21088;-74
2021/08/05 10:32:10;;;;;;;14.60;12.58;;;;;;;16.94;77.60;99535.44;1975241;88;21541;-76
2021/08/05 10:35:13;;;;;;;15.60;14.13;;;;;;;16.71;77.75;99533.38;1965111;88;21122;-73
2021/08/05 10:38:25;;;;;;;15.30;13.80;;;;;;;16.59;78.25;99538.64;1978270;88;21662;-76
2021/08/05 10:41:31;;;;;;;15.98;14.35;;;;;;;16.53;78.45;99534.17;1973640;88;21671;-78
2021/08/05 10:44:36;;;;;;;14.93;13.53;;;;;;;16.60;78.73;99532.76;1960530;86;21418;-74
2021/08/05 10:47:39;;;;;;;15.32;13.83;;;;;;;16.68;78.74;99526.31;1960042;88;21582;-78
2021/08/05 10:50:44;;;;;;;12.90;11.80;;;;;;;16.81;78.94;99523.54;1957264;88;21104;-77
2021/08/05 10:53:46;;;;;;;14.33;12.95;;;;;;;16.90;78.73;99525.41;1973087;87;21224;-75
2021/08/05 10:56:48;;;;;;;13.50;12.05;;;;;;;16.97;78.88;99515.42;1964050;88;21152;-75
2021/08/05 11:00:11;;;;;;;13.10;11.85;;;;;;;17.08;78.93;99512.52;1972154;88;21123;-79
2021/08/05 11:03:44;;;;;;;13.83;12.40;;;;;;;17.21;79.30;99507.02;1969519;88;21172;-74
2021/08/05 11:06:43;;;;;;;15.55;13.93;;;;;;;17.37;79.38;99500.20;1965555;87;21972;-74
2021/08/05 11:09:45;;;;;;;15.70;13.83;;;;;;;17.37;79.38;99500.20;1963290;88;21109;-82
2021/08/05 11:12:55;;;;;;;15.83;13.98;;;;;;;17.46;79.23;99492.97;1959257;88;22083;-75
2021/08/05 11:15:59;;;;;;;14.15;12.55;;;;;;;17.58;79.73;99485.49;1972924;88;21111;-80
2021/08/05 11:19:21;;;;;;;14.43;12.95;;;;;;;17.74;79.61;99485.34;1975325;88;21065;-81
2021/08/05 11:22:41;;;;;;;14.40;12.73;;;;;;;17.87;79.73;99476.61;1966736;87;21151;-74
2021/08/05 11:25:57;;;;;;;10.40;9.47;;;;;;;17.94;78.19;99452.91;1963469;87;21130;-74
2021/08/05 11:28:58;;;;;;;10.68;9.68;;;;;;;17.94;78.19;99452.91;1965223;88;21506;-78
2021/08/05 11:32:24;;;;;;;12.37;9.30;;;;;;;17.97;78.09;99465.86;1959819;88;21075;-81
2021/08/05 11:35:25;;;;;;;11.40;10.30;;;;;;;17.88;77.13;99466.19;1948106;88;21524;-75
2021/08/05 11:38:29;;;;;;;9.93;8.93;;;;;;;17.83;77.81;99463.38;1971269;87;21678;-80
2021/08/05 11:41:58;;;;;;;9.80;8.80;;;;;;;17.87;77.46;99455.67;1925939;88;21275;-76
2021/08/05 11:45:08;;;;;;;9.10;8.20;;;;;;;17.85;77.20;99449.70;1967081;88;21107;-75
2021/08/05 11:48:10;;;;;;;9.35;8.45;;;;;;;17.82;76.52;99445.65;1971698;88;21071;-76
2021/08/05 11:51:13;;;;;;;9.70;8.08;;;;;;;17.79;76.56;99446.08;1962614;87;21173;-79
2021/08/05 11:54:18;;;;;;;8.38;7.35;;;;;;;17.82;77.39;99444.30;1967302;88;21175;-77
2021/08/05 11:57:20;;;;;;;8.15;7.35;;;;;;;17.88;77.03;99442.04;1939684;88;21624;-76
2021/08/05 12:00:26;;;;;;;8.75;7.85;;;;;;;17.89;76.76;99434.27;1974454;88;21037;-83
2021/08/05 12:03:29;;;;;;;8.40;6.90;;;;;;;17.91;76.74;99433.52;1962676;87;21087;-75
2021/08/05 12:06:30;;;;;;;8.78;7.72;;;;;;;17.91;77.02;99434.86;1969222;88;21740;-75
2021/08/05 12:09:31;;;;;;;9.25;8.35;;;;;;;17.91;76.70;99436.73;1973739;87;21102;-79
2021/08/05 12:12:44;;;;;;;10.55;8.70;;;;;;;17.85;76.83;99433.11;2008902;85;21666;-79
2021/08/05 12:15:50;;;;;;;9.48;8.43;;;;;;;17.84;76.62;99427.96;1981775;87;21103;-78
2021/08/05 12:18:51;;;;;;;9.40;8.55;;;;;;;17.74;76.45;99423.14;2018179;85;21082;-74
2021/08/05 12:21:53;;;;;;;10.15;9.10;;;;;;;17.70;77.25;99429.47;2023174;85;21668;-80
2021/08/05 12:24:55;;;;;;;12.70;10.60;;;;;;;17.61;76.25;99423.34;2015263;84;21113;-82
2021/08/05 12:28:02;;;;;;;11.73;10.45;;;;;;;17.47;76.32;99424.86;1976319;86;21149;-83
2021/08/05 12:31:07;;;;;;;13.78;11.30;;;;;;;17.35;76.70;99411.14;2016173;85;21090;-79
2021/08/05 12:34:11;;;;;;;13.28;11.05;;;;;;;17.22;77.00;99410.26;2010296;85;21189;-77
2021/08/05 12:37:14;;;;;;;12.63;11.33;;;;;;;17.16;77.18;99405.00;2027580;85;22402;-80
2021/08/05 12:40:16;;;;;;;12.53;11.28;;;;;;;17.14;77.67;99408.42;2014727;86;21090;-82
2021/08/05 12:43:19;;;;;;;11.93;10.72;;;;;;;17.17;77.68;99411.98;2033971;85;21147;-80
2021/08/05 12:46:22;;;;;;;12.05;10.88;;;;;;;17.21;77.80;99402.46;2021592;84;21053;-83
2021/08/05 12:49:35;;;;;;;11.85;10.75;;;;;;;17.21;77.82;99398.44;2012645;85;21359;-81
2021/08/05 12:52:40;;;;;;;12.88;11.57;;;;;;;17.23;78.03;99393.64;2010737;86;21132;-77
2021/08/05 12:55:48;;;;;;;15.00;12.70;;;;;;;17.21;77.97;99387.72;2011569;86;21097;-77
2021/08/05 12:58:58;;;;;;;15.15;12.47;;;;;;;17.20;78.03;99384.23;2028097;85;21153;-80
2021/08/05 13:02:08;;;;;;;14.15;12.65;;;;;;;17.16;78.17;99376.85;2005593;85;21223;-81
2021/08/05 13:05:09;;;;;;;13.83;12.05;;;;;;;17.12;78.79;99379.67;2007901;85;21094;-81
2021/08/05 13:08:31;;;;;;;13.40;11.85;;;;;;;17.14;78.85;99377.06;2012949;84;21089;-77
2021/08/05 13:11:38;;;;;;;14.55;12.90;;;;;;;17.21;78.73;99370.30;2014819;84;21113;-81
2021/08/05 13:14:42;;;;;;;13.50;12.20;;;;;;;17.18;79.33;99366.73;2004979;84;22084;-80
2021/08/05 13:17:44;;;;;;;10.63;9.53;;;;;;;17.18;79.14;99364.05;2004935;85;21133;-78
2021/08/05 13:20:46;;;;;;;12.18;8.90;;;;;;;17.18;78.64;99357.34;2009434;85;21177;-76
2021/08/05 13:23:47;;;;;;;10.43;9.35;;;;;;;17.13;78.61;99353.19;2013132;85;21058;-77
2021/08/05 13:27:02;;;;;;;9.78;8.25;;;;;;;17.13;78.58;99347.83;2015667;85;21150;-79
2021/08/05 13:30:19;;;;;;;12.15;9.73;;;;;;;17.15;78.64;99345.75;2014233;85;21056;-74
2021/08/05 13:33:28;;;;;;;11.40;10.23;;;;;;;17.11;78.65;99352.59;2007088;86;21161;-78
2021/08/05 13:36:40;;;;;;;12.47;10.48;;;;;;;17.10;78.91;99359.01;2024027;86;22353;-75
2021/08/05 13:39:52;;;;;;;12.25;10.15;;;;;;;17.11;79.14;99356.61;2006561;86;21089;-76
2021/08/05 13:42:54;;;;;;;12.65;11.35;;;;;;;17.14;79.10;99360.98;2014436;85;21120;-75
2021/08/05 13:45:56;;;;;;;10.70;9.05;;;;;;;17.20;78.85;99346.70;2006179;85;21136;-77
2021/08/05 13:48:58;;;;;;;10.20;9.20;;;;;;;17.22;78.82;99345.11;2006874;85;21105;-87
2021/08/05 13:52:00;;;;;;;10.80;9.80;;;;;;;17.18;78.63;99355.48;2013990;86;21132;-83
2021/08/05 13:55:02;;;;;;;9.58;8.60;;;;;;;17.19;78.66;99350.93;2010173;85;21097;-76
2021/08/05 13:58:07;;;;;;;10.25;9.18;;;;;;;17.18;78.73;99342.61;2004243;86;21097;-74
2021/08/05 14:01:09;;;;;;;9.80;8.80;;;;;;;17.18;78.80;99339.92;2012639;85;21054;-76
2021/08/05 14:04:13;;;;;;;10.65;9.08;;;;;;;17.21;78.86;99338.13;2004940;85;21077;-79
2021/08/05 14:07:15;;;;;;;9.80;8.83;;;;;;;17.24;78.96;99336.33;2013346;84;21581;-80
2021/08/05 14:10:17;;;;;;;9.13;8.30;;;;;;;17.24;78.96;99333.64;2029406;85;21221;-77
2021/08/05 14:13:19;;;;;;;10.23;8.65;;;;;;;17.22;79.08;99332.52;2013581;86;21120;-75
2021/08/05 14:16:21;;;;;;;9.93;8.65;;;;;;;17.18;79.37;99330.55;2010033;85;21172;-76